createdAt,value
2022-12-31T00:01:30.584Z,97040.56
2022-12-31T00:03:57.625Z,97041.06
2022-12-31T00:06:31.935Z,97030.72
2022-12-31T00:09:00.160Z,97048.00
2022-12-31T00:11:28.471Z,97057.81
2022-12-31T00:13:55.638Z,97059.13
2022-12-31T00:16:24.783Z,97071.34
2022-12-31T00:18:55.388Z,97112.00
2022-12-31T00:21:22.662Z,97086.75
2022-12-31T00:23:49.804Z,97106.72
2022-12-31T00:26:21.950Z,97122.91
2022-12-31T00:28:48.989Z,97119.69
2022-12-31T00:31:20.919Z,97134.84
2022-12-31T00:33:48.928Z,97124.75
2022-12-31T00:36:22.136Z,97136.44
2022-12-31T00:38:50.483Z,97140.94
2022-12-31T00:41:18.328Z,97168.00
2022-12-31T00:43:45.361Z,97158.19
2022-12-31T00:46:12.519Z,97164.03
2022-12-31T00:48:39.929Z,97177.31
2022-12-31T00:51:10.301Z,97181.56
2022-12-31T00:53:37.870Z,97192.97
2022-12-31T00:56:08.156Z,97199.31
2022-12-31T00:58:35.447Z,97206.75
2022-12-31T01:01:13.496Z,97208.34
2022-12-31T01:03:40.521Z,97221.06
2022-12-31T01:06:07.573Z,97234.59
2022-12-31T01:08:34.388Z,97234.84
2022-12-31T01:11:19.874Z,97233.78
2022-12-31T01:13:54.686Z,97237.75
2022-12-31T01:16:24.966Z,97252.88
2022-12-31T01:18:52.178Z,97256.59
2022-12-31T01:21:19.581Z,97262.13
2022-12-31T01:23:46.868Z,97267.97
2022-12-31T01:26:15.367Z,97276.97
2022-12-31T01:28:42.381Z,97281.50
2022-12-31T01:31:12.446Z,97288.91
2022-12-31T01:33:39.692Z,97294.22
2022-12-31T01:36:09.811Z,97297.66
2022-12-31T01:38:36.657Z,97311.19
2022-12-31T01:41:03.929Z,97323.91
2022-12-31T01:43:44.675Z,97333.13
2022-12-31T01:46:13.299Z,97335.25
2022-12-31T01:48:40.201Z,97345.81
2022-12-31T01:51:08.232Z,97355.44
2022-12-31T01:53:37.264Z,97364.03
2022-12-31T01:56:06.946Z,97378.72
2022-12-31T01:58:40.392Z,97377.34
2022-12-31T02:01:08.472Z,97381.63
2022-12-31T02:03:35.568Z,97384.72
2022-12-31T02:06:05.901Z,97381.31
2022-12-31T02:08:38.370Z,97395.47
2022-12-31T02:11:25.543Z,97400.50
2022-12-31T02:13:58.342Z,97404.69
2022-12-31T02:16:49.476Z,97415.38
2022-12-31T02:19:40.684Z,97425.09
2022-12-31T02:22:22.888Z,97433.31
2022-12-31T02:25:08.427Z,97451.19
2022-12-31T02:27:56.765Z,97447.91
2022-12-31T02:30:24.829Z,97446.50
2022-12-31T02:32:57.677Z,97453.16
2022-12-31T02:35:45.968Z,97451.75
2022-12-31T02:38:20.844Z,97459.03
2022-12-31T02:40:48.395Z,97453.28
2022-12-31T02:43:15.127Z,97456.31
2022-12-31T02:45:45.721Z,97457.06
2022-12-31T02:48:34.322Z,97458.72
2022-12-31T02:51:08.754Z,97455.75
2022-12-31T02:54:03.782Z,97461.94
2022-12-31T02:56:48.606Z,97465.94
2022-12-31T02:59:59.717Z,97466.44
2022-12-31T03:02:28.418Z,97466.69
2022-12-31T03:04:57.222Z,97467.19
2022-12-31T03:07:26.790Z,97466.69
2022-12-31T03:09:54.994Z,97462.97
2022-12-31T03:12:43.162Z,97465.06
2022-12-31T03:15:20.322Z,97474.63
2022-12-31T03:18:13.503Z,97481.78
2022-12-31T03:21:06.205Z,97487.84
2022-12-31T03:23:36.339Z,97491.03
2022-12-31T03:26:10.211Z,97491.69
2022-12-31T03:28:39.562Z,97498.28
2022-12-31T03:31:06.976Z,97499.56
2022-12-31T03:33:39.268Z,97507.22
2022-12-31T03:36:13.149Z,97513.31
2022-12-31T03:38:40.084Z,97519.09
2022-12-31T03:41:10.026Z,97511.88
2022-12-31T03:43:36.840Z,97517.41
2022-12-31T03:46:03.584Z,97528.81
2022-12-31T03:48:30.561Z,97533.81
2022-12-31T03:50:57.380Z,97538.78
2022-12-31T03:53:24.314Z,97546.31
2022-12-31T03:55:54.698Z,97530.97
2022-12-31T03:58:22.173Z,97533.06
2022-12-31T04:00:49.385Z,97541.59
2022-12-31T04:03:16.398Z,97551.13
2022-12-31T04:05:43.184Z,97546.31
2022-12-31T04:08:10.088Z,97553.16
2022-12-31T04:10:36.854Z,97560.44
2022-12-31T04:13:04.757Z,97556.19
2022-12-31T04:15:31.940Z,97562.94
2022-12-31T04:17:58.699Z,97576.50
2022-12-31T04:20:25.523Z,97588.03
2022-12-31T04:22:52.324Z,97585.97
2022-12-31T04:25:19.176Z,97593.44
2022-12-31T04:27:46.231Z,97602.66
2022-12-31T04:30:13.516Z,97604.84
2022-12-31T04:32:40.377Z,97604.97
2022-12-31T04:35:07.901Z,97612.59
2022-12-31T04:37:34.717Z,97613.72
2022-12-31T04:40:05.767Z,97618.28
2022-12-31T04:42:32.921Z,97620.56
2022-12-31T04:44:59.613Z,97624.75
2022-12-31T04:47:26.480Z,97627.06
2022-12-31T04:49:53.235Z,97622.81
2022-12-31T04:52:19.969Z,97631.97
2022-12-31T04:54:46.771Z,97638.22
2022-12-31T04:59:40.362Z,97646.06
2022-12-31T05:02:07.336Z,97651.94
2022-12-31T05:04:34.226Z,97650.09
2022-12-31T05:07:01.016Z,97657.47
2022-12-31T05:09:28.447Z,97667.44
2022-12-31T05:11:55.557Z,97668.94
2022-12-31T05:14:22.557Z,97669.09
2022-12-31T05:16:49.502Z,97673.59
2022-12-31T05:19:16.366Z,97673.22
2022-12-31T05:21:43.240Z,97676.03
2022-12-31T05:24:09.977Z,97682.59
2022-12-31T05:26:36.718Z,97685.38
2022-12-31T05:29:03.495Z,97677.44
2022-12-31T05:31:30.442Z,97684.22
2022-12-31T05:33:57.462Z,97678.13
2022-12-31T05:36:24.325Z,97684.78
2022-12-31T05:38:51.099Z,97683.53
2022-12-31T05:41:18.011Z,97685.94
2022-12-31T05:43:44.748Z,97686.88
2022-12-31T05:46:11.739Z,97692.50
2022-12-31T05:48:38.473Z,97687.41
2022-12-31T05:51:05.482Z,97698.44
2022-12-31T05:53:34.398Z,97692.75
2022-12-31T05:56:01.454Z,97694.88
2022-12-31T05:58:28.231Z,97700.28
2022-12-31T06:00:55.079Z,97710.00
2022-12-31T06:03:22.032Z,97693.34
2022-12-31T06:05:49.836Z,97698.63
2022-12-31T06:08:16.700Z,97691.63
2022-12-31T06:10:43.488Z,97701.59
2022-12-31T06:13:10.312Z,97699.69
2022-12-31T06:15:39.523Z,97700.53
2022-12-31T06:18:06.760Z,97706.91
2022-12-31T06:20:34.013Z,97712.91
2022-12-31T06:23:00.727Z,97721.81
2022-12-31T06:25:27.645Z,97714.94
2022-12-31T06:27:54.393Z,97719.88
2022-12-31T06:30:21.318Z,97730.16
2022-12-31T06:32:48.102Z,97732.34
2022-12-31T06:35:14.909Z,97730.56
2022-12-31T06:37:41.895Z,97729.97
2022-12-31T06:40:09.354Z,97730.09
2022-12-31T06:42:36.142Z,97733.31
2022-12-31T06:45:03.060Z,97736.09
2022-12-31T06:47:29.905Z,97729.53
2022-12-31T06:49:56.760Z,97733.59
2022-12-31T06:52:23.680Z,97746.03
2022-12-31T06:54:50.999Z,97735.00
2022-12-31T06:57:18.097Z,97739.97
2022-12-31T06:59:45.187Z,97756.75
2022-12-31T07:02:31.129Z,97757.94
2022-12-31T07:05:26.069Z,97755.94
2022-12-31T07:08:08.985Z,97767.56
2022-12-31T07:11:07.996Z,97768.34
2022-12-31T07:13:56.117Z,97783.84
2022-12-31T07:17:05.195Z,97785.66
2022-12-31T07:19:57.727Z,97793.56
2022-12-31T07:22:25.033Z,97814.47
2022-12-31T07:24:52.078Z,97795.19
2022-12-31T07:27:23.124Z,97805.91
2022-12-31T07:30:09.121Z,97810.44
2022-12-31T07:32:49.608Z,97820.06
2022-12-31T07:35:47.254Z,97824.97
2022-12-31T07:38:32.457Z,97838.31
2022-12-31T07:41:10.028Z,97834.66
2022-12-31T07:43:58.886Z,97847.56
2022-12-31T07:47:07.034Z,97849.28
2022-12-31T07:49:34.451Z,97862.41
2022-12-31T07:52:02.270Z,97867.97
2022-12-31T07:54:29.035Z,97865.13
2022-12-31T07:56:55.783Z,97864.72
2022-12-31T07:59:24.621Z,97866.66
2022-12-31T08:02:13.780Z,97884.00
2022-12-31T08:04:54.364Z,97882.84
2022-12-31T08:07:36.006Z,97890.41
2022-12-31T08:10:34.301Z,97893.72
2022-12-31T08:13:02.952Z,97896.16
2022-12-31T08:15:30.924Z,97900.84
2022-12-31T08:17:58.201Z,97903.94
2022-12-31T08:20:26.042Z,97902.22
2022-12-31T08:23:01.047Z,97901.47
2022-12-31T08:25:46.851Z,97906.97
2022-12-31T08:28:58.745Z,97918.78
2022-12-31T08:31:45.608Z,97916.94
2022-12-31T08:34:21.142Z,97921.19
2022-12-31T08:37:09.571Z,97933.66
2022-12-31T08:39:58.177Z,97942.44
2022-12-31T08:42:38.435Z,97955.97
2022-12-31T08:45:17.341Z,97968.81
2022-12-31T08:48:00.828Z,97975.78
2022-12-31T08:50:28.406Z,97974.00
2022-12-31T08:52:55.702Z,97979.44
2022-12-31T08:55:22.728Z,97983.53
2022-12-31T08:57:55.427Z,97992.53
2022-12-31T09:00:22.973Z,97985.66
2022-12-31T09:03:09.543Z,97985.84
2022-12-31T09:05:58.851Z,97992.50
2022-12-31T09:08:30.868Z,97998.25
2022-12-31T09:11:20.874Z,97992.16
2022-12-31T09:14:18.939Z,97998.56
2022-12-31T09:16:45.712Z,98000.19
2022-12-31T09:19:12.498Z,98006.47
2022-12-31T09:21:44.374Z,97997.75
2022-12-31T09:24:15.553Z,98007.72
2022-12-31T09:27:00.505Z,98012.97
2022-12-31T09:29:49.437Z,98019.28
2022-12-31T09:32:34.682Z,98033.94
2022-12-31T09:35:29.179Z,98035.50
2022-12-31T09:38:17.107Z,98037.53
2022-12-31T09:41:12.855Z,98048.47
2022-12-31T09:44:10.455Z,98043.56
2022-12-31T09:47:06.915Z,98046.38
2022-12-31T09:50:01.255Z,98050.81
2022-12-31T09:52:46.068Z,98053.31
2022-12-31T09:55:31.800Z,98061.22
2022-12-31T09:58:07.604Z,98054.28
2022-12-31T10:00:58.287Z,98065.63
2022-12-31T10:03:36.775Z,98070.44
2022-12-31T10:06:03.522Z,98077.69
2022-12-31T10:08:36.483Z,98085.00
2022-12-31T10:11:10.216Z,98091.56
2022-12-31T10:13:36.991Z,98098.41
2022-12-31T10:16:39.185Z,98109.94
2022-12-31T10:19:43.413Z,98125.81
2022-12-31T10:22:46.293Z,98128.97
2022-12-31T10:25:45.498Z,98140.13
2022-12-31T10:28:25.050Z,98144.97
2022-12-31T10:31:36.652Z,98150.78
2022-12-31T10:34:13.650Z,98158.13
2022-12-31T10:36:58.474Z,98166.06
2022-12-31T10:39:35.676Z,98167.72
2022-12-31T10:42:18.367Z,98165.16
2022-12-31T10:45:22.658Z,98163.53
2022-12-31T10:48:01.409Z,98162.75
2022-12-31T10:50:52.999Z,98167.41
2022-12-31T10:53:51.808Z,98168.16
2022-12-31T10:57:07.305Z,98160.69
2022-12-31T10:59:47.073Z,98156.19
2022-12-31T11:02:38.247Z,98166.56
2022-12-31T11:05:26.503Z,98169.34
2022-12-31T11:08:11.845Z,98165.09
2022-12-31T11:11:00.272Z,98177.78
2022-12-31T11:13:58.450Z,98170.72
2022-12-31T11:16:34.269Z,98177.41
2022-12-31T11:19:35.837Z,98177.41
2022-12-31T11:22:08.590Z,98177.91
2022-12-31T11:25:07.645Z,98183.88
2022-12-31T11:28:11.825Z,98178.16
2022-12-31T11:30:47.768Z,98178.59
2022-12-31T11:33:38.091Z,98176.44
2022-12-31T11:36:24.330Z,98176.56
2022-12-31T11:39:14.848Z,98170.06
2022-12-31T11:41:57.694Z,98179.91
2022-12-31T11:44:49.516Z,98171.28
2022-12-31T11:48:28.468Z,98168.09
2022-12-31T11:50:39.872Z,98170.88
2022-12-31T11:53:25.708Z,98173.19
2022-12-31T11:56:04.544Z,98180.31
2022-12-31T11:58:31.694Z,98181.84
2022-12-31T12:01:05.769Z,98178.84
2022-12-31T12:03:33.220Z,98171.72
2022-12-31T12:06:00.022Z,98178.22
2022-12-31T12:08:30.723Z,98178.38
2022-12-31T12:11:05.630Z,98177.69
2022-12-31T12:13:33.321Z,98180.50
2022-12-31T12:16:03.150Z,98191.59
2022-12-31T12:18:46.475Z,98195.63
2022-12-31T12:21:18.805Z,98202.56
2022-12-31T12:24:07.128Z,98205.66
2022-12-31T12:26:41.645Z,98214.03
2022-12-31T12:29:15.383Z,98221.53
2022-12-31T12:31:42.582Z,98223.03
2022-12-31T12:34:47.715Z,98217.75
2022-12-31T12:37:25.323Z,98223.44
2022-12-31T12:40:01.072Z,98233.00
2022-12-31T12:42:28.642Z,98231.91
2022-12-31T12:45:26.140Z,98228.75
2022-12-31T12:48:25.980Z,98220.59
2022-12-31T12:50:52.822Z,98227.72
2022-12-31T12:53:44.010Z,98234.63
2022-12-31T12:56:40.098Z,98236.38
2022-12-31T12:59:37.849Z,98242.78
2022-12-31T13:02:34.462Z,98242.81
2022-12-31T13:05:12.397Z,98247.47
2022-12-31T13:08:00.982Z,98249.03
2022-12-31T13:10:27.892Z,98247.50
2022-12-31T13:13:24.997Z,98253.06
2022-12-31T13:16:16.877Z,98248.44
2022-12-31T13:18:49.855Z,98253.38
2022-12-31T13:21:28.639Z,98255.97
2022-12-31T13:24:04.931Z,98258.81
2022-12-31T13:26:45.514Z,98244.78
2022-12-31T13:29:17.476Z,98257.28
2022-12-31T13:31:45.141Z,98258.25
2022-12-31T13:34:26.403Z,98263.50
2022-12-31T13:36:54.544Z,98262.53
2022-12-31T13:39:26.493Z,98254.81
2022-12-31T13:41:57.831Z,98266.50
2022-12-31T13:44:38.337Z,98259.34
2022-12-31T13:47:38.508Z,98268.69
2022-12-31T13:50:29.942Z,98268.25
2022-12-31T13:53:15.799Z,98280.56
2022-12-31T13:55:46.196Z,98274.69
2022-12-31T13:58:31.803Z,98279.59
2022-12-31T14:01:20.382Z,98274.53
2022-12-31T14:04:09.103Z,98279.16
2022-12-31T14:06:45.842Z,98277.91
2022-12-31T14:09:33.726Z,98270.63
2022-12-31T14:12:33.767Z,98276.22
2022-12-31T14:15:00.529Z,98273.97
2022-12-31T14:17:44.155Z,98277.34
2022-12-31T14:20:29.708Z,98278.75
2022-12-31T14:23:27.655Z,98280.56
2022-12-31T14:26:00.324Z,98281.16
2022-12-31T14:28:34.319Z,98294.22
2022-12-31T14:31:15.772Z,98289.78
2022-12-31T14:33:45.836Z,98293.31
2022-12-31T14:36:28.249Z,98297.41
2022-12-31T14:39:19.583Z,98291.31
2022-12-31T14:42:03.690Z,98284.97
2022-12-31T14:45:18.799Z,98290.63
2022-12-31T14:48:27.434Z,98297.41
2022-12-31T14:50:54.545Z,98299.47
2022-12-31T14:53:26.271Z,98301.78
2022-12-31T14:56:32.422Z,98306.84
2022-12-31T14:59:01.085Z,98303.63
2022-12-31T15:01:28.124Z,98307.50
2022-12-31T15:03:57.964Z,98309.06
2022-12-31T15:06:24.708Z,98313.66
2022-12-31T15:09:08.530Z,98320.50
2022-12-31T15:11:50.636Z,98318.47
2022-12-31T15:14:23.350Z,98329.47
2022-12-31T15:17:11.935Z,98330.72
2022-12-31T15:20:16.618Z,98319.75
2022-12-31T15:22:45.751Z,98331.38
2022-12-31T15:25:39.988Z,98329.94
2022-12-31T15:28:31.834Z,98329.59
2022-12-31T15:31:14.419Z,98340.19
2022-12-31T15:34:16.596Z,98346.47
2022-12-31T15:36:53.295Z,98347.09
2022-12-31T15:39:37.431Z,98347.88
2022-12-31T15:42:37.404Z,98351.16
2022-12-31T15:45:24.909Z,98353.78
2022-12-31T15:48:00.675Z,98351.78
2022-12-31T15:50:27.989Z,98350.97
2022-12-31T15:52:58.159Z,98360.31
2022-12-31T15:55:31.034Z,98350.38
2022-12-31T15:58:05.580Z,98341.47
2022-12-31T16:00:56.153Z,98351.41
2022-12-31T16:03:25.212Z,98361.34
2022-12-31T16:05:56.617Z,98367.22
2022-12-31T16:08:25.191Z,98370.88
2022-12-31T16:10:54.364Z,98378.81
2022-12-31T16:13:23.602Z,98383.69
2022-12-31T16:16:01.948Z,98391.38
2022-12-31T16:18:39.528Z,98389.97
2022-12-31T16:21:21.178Z,98403.59
2022-12-31T16:23:52.979Z,98401.34
2022-12-31T16:26:19.978Z,98397.47
2022-12-31T16:28:50.133Z,98393.81
2022-12-31T16:31:19.842Z,98382.69
2022-12-31T16:33:47.102Z,98391.81
2022-12-31T16:36:21.729Z,98385.13
2022-12-31T16:38:49.480Z,98377.38
2022-12-31T16:41:21.016Z,98366.84
2022-12-31T16:43:49.595Z,98375.34
2022-12-31T16:46:26.218Z,98380.81
2022-12-31T16:48:55.879Z,98382.06
2022-12-31T16:51:26.913Z,98390.59
2022-12-31T16:53:53.794Z,98400.31
2022-12-31T16:56:33.185Z,98399.09
2022-12-31T16:59:24.008Z,98407.44
2022-12-31T17:01:51.009Z,98398.47
2022-12-31T17:04:19.820Z,98394.19
2022-12-31T17:06:47.958Z,98399.69
2022-12-31T17:09:20.969Z,98394.59
2022-12-31T17:11:50.798Z,98390.97
2022-12-31T17:14:28.761Z,98393.81
2022-12-31T17:17:03.274Z,98407.44
2022-12-31T17:19:48.114Z,98416.34
2022-12-31T17:22:32.943Z,98405.19
2022-12-31T17:25:08.712Z,98405.41
2022-12-31T17:27:36.564Z,98414.72
2022-12-31T17:30:43.571Z,98411.50
2022-12-31T17:33:13.187Z,98416.34
2022-12-31T17:35:44.741Z,98416.16
2022-12-31T17:38:23.825Z,98417.38
2022-12-31T17:40:53.333Z,98422.66
2022-12-31T17:43:21.823Z,98432.41
2022-12-31T17:45:51.701Z,98428.13
2022-12-31T17:48:19.708Z,98433.22
2022-12-31T17:50:50.984Z,98427.13
2022-12-31T17:53:18.193Z,98430.16
2022-12-31T17:55:47.509Z,98427.53
2022-12-31T17:58:29.281Z,98434.22
2022-12-31T18:00:57.179Z,98438.91
2022-12-31T18:03:24.139Z,98449.66
2022-12-31T18:05:50.993Z,98447.84
2022-12-31T18:08:17.736Z,98449.84
2022-12-31T18:10:45.040Z,98456.34
2022-12-31T18:13:18.395Z,98448.00
2022-12-31T18:15:45.329Z,98457.56
2022-12-31T18:18:25.585Z,98454.53
2022-12-31T18:20:55.492Z,98453.28
2022-12-31T18:23:31.007Z,98455.50
2022-12-31T18:25:57.905Z,98464.47
2022-12-31T18:28:24.718Z,98462.03
2022-12-31T18:30:51.811Z,98466.69
2022-12-31T18:33:22.442Z,98463.22
2022-12-31T18:36:08.301Z,98459.56
2022-12-31T18:38:36.348Z,98454.31
2022-12-31T18:41:03.110Z,98464.25
2022-12-31T18:43:29.941Z,98462.22
2022-12-31T18:45:56.842Z,98459.75
2022-12-31T18:48:23.633Z,98458.97
2022-12-31T18:50:50.675Z,98451.25
2022-12-31T18:53:20.782Z,98462.63
2022-12-31T18:55:51.417Z,98466.91
2022-12-31T18:58:18.272Z,98467.09
2022-12-31T19:00:45.753Z,98471.16
2022-12-31T19:03:21.841Z,98490.66
2022-12-31T19:05:50.830Z,98487.19
2022-12-31T19:08:18.720Z,98493.28
2022-12-31T19:10:46.037Z,98503.84
2022-12-31T19:13:13.502Z,98490.03
2022-12-31T19:15:48.938Z,98476.03
2022-12-31T19:18:16.633Z,98472.38
2022-12-31T19:20:43.585Z,98477.84
2022-12-31T19:23:18.950Z,98491.66
2022-12-31T19:25:46.991Z,98490.84
2022-12-31T19:28:25.336Z,98485.78
2022-12-31T19:30:52.874Z,98499.16
2022-12-31T19:33:19.939Z,98499.16
2022-12-31T19:35:46.993Z,98504.03
2022-12-31T19:38:34.601Z,98508.72
2022-12-31T19:41:02.156Z,98517.03
2022-12-31T19:43:29.204Z,98520.69
2022-12-31T19:45:56.129Z,98524.53
2022-12-31T19:48:30.469Z,98528.00
2022-12-31T19:50:59.312Z,98534.13
2022-12-31T19:53:27.984Z,98531.84
2022-12-31T19:55:54.853Z,98537.09
2022-12-31T19:58:25.696Z,98537.06
2022-12-31T20:00:58.264Z,98529.81
2022-12-31T20:03:29.018Z,98528.19
2022-12-31T20:06:07.139Z,98533.63
2022-12-31T20:08:35.468Z,98531.44
2022-12-31T20:11:13.686Z,98519.44
2022-12-31T20:13:41.195Z,98518.66
2022-12-31T20:16:09.814Z,98522.28
2022-12-31T20:18:38.146Z,98516.78
2022-12-31T20:21:05.504Z,98519.69
2022-12-31T20:23:35.317Z,98528.81
2022-12-31T20:26:02.251Z,98514.63
2022-12-31T20:28:29.828Z,98514.25
2022-12-31T20:30:56.769Z,98519.34
2022-12-31T20:33:23.906Z,98505.72
2022-12-31T20:35:51.278Z,98495.56
2022-12-31T20:38:18.011Z,98506.13
2022-12-31T20:40:47.140Z,98509.38
2022-12-31T20:43:14.304Z,98520.34
2022-12-31T20:45:41.945Z,98518.94
2022-12-31T20:48:08.975Z,98516.50
2022-12-31T20:50:35.951Z,98513.06
2022-12-31T20:53:03.158Z,98505.31
2022-12-31T20:55:31.486Z,98513.25
2022-12-31T20:57:58.323Z,98517.75
2022-12-31T21:00:25.096Z,98517.53
2022-12-31T21:03:03.851Z,98510.84
2022-12-31T21:05:33.802Z,98520.38
2022-12-31T21:08:00.696Z,98522.59
2022-12-31T21:10:27.556Z,98522.81
2022-12-31T21:12:54.318Z,98519.97
2022-12-31T21:15:21.754Z,98521.59
2022-12-31T21:17:48.650Z,98530.75
2022-12-31T21:20:15.652Z,98518.97
2022-12-31T21:22:42.496Z,98531.53
2022-12-31T21:25:10.632Z,98525.06
2022-12-31T21:27:37.484Z,98524.03
2022-12-31T21:30:20.608Z,98534.41
2022-12-31T21:32:47.915Z,98526.25
2022-12-31T21:38:06.244Z,98525.63
2022-12-31T21:40:33.534Z,98517.28
2022-12-31T21:43:00.626Z,98517.47
2022-12-31T21:45:27.431Z,98525.78
2022-12-31T21:48:13.053Z,98521.91
2022-12-31T21:50:39.942Z,98526.38
2022-12-31T21:53:06.669Z,98516.63
2022-12-31T21:55:52.218Z,98524.00
2022-12-31T21:58:27.754Z,98525.63
2022-12-31T22:01:14.791Z,98529.31
2022-12-31T22:03:41.991Z,98527.84
2022-12-31T22:06:24.843Z,98517.84
2022-12-31T22:08:54.214Z,98522.72
2022-12-31T22:11:23.862Z,98521.28
2022-12-31T22:13:51.407Z,98528.19
2022-12-31T22:16:20.288Z,98533.69
2022-12-31T22:18:47.715Z,98534.34
2022-12-31T22:21:20.487Z,98534.31
2022-12-31T22:23:58.853Z,98531.25
2022-12-31T22:26:28.201Z,98522.31
2022-12-31T22:28:59.293Z,98508.50
2022-12-31T22:31:29.842Z,98500.16
2022-12-31T22:33:56.820Z,98513.56
2022-12-31T22:36:23.998Z,98511.13
2022-12-31T22:38:54.599Z,98515.00
2022-12-31T22:41:22.513Z,98505.47
2022-12-31T22:43:51.533Z,98492.44
2022-12-31T22:46:22.250Z,98491.97
2022-12-31T22:48:49.800Z,98490.53
2022-12-31T22:51:17.499Z,98491.72
2022-12-31T22:53:44.464Z,98488.25
2022-12-31T22:56:13.723Z,98492.47
2022-12-31T22:58:40.728Z,98501.44
2022-12-31T23:01:13.732Z,98491.06
2022-12-31T23:03:42.198Z,98496.56
2022-12-31T23:06:09.016Z,98493.69
2022-12-31T23:08:35.840Z,98510.13
2022-12-31T23:11:11.529Z,98504.84
2022-12-31T23:14:01.125Z,98509.31
2022-12-31T23:16:47.927Z,98511.00
2022-12-31T23:19:34.134Z,98517.69
2022-12-31T23:22:20.096Z,98523.16
2022-12-31T23:24:47.205Z,98528.75
2022-12-31T23:27:13.984Z,98533.75
2022-12-31T23:29:46.568Z,98538.47
2022-12-31T23:32:17.899Z,98522.75
2022-12-31T23:34:45.997Z,98529.59
2022-12-31T23:37:14.376Z,98528.25
2022-12-31T23:39:41.964Z,98529.81
2022-12-31T23:42:08.969Z,98528.47
2022-12-31T23:44:35.791Z,98524.19
2022-12-31T23:47:02.656Z,98522.91
2022-12-31T23:49:29.568Z,98512.94
2022-12-31T23:51:56.362Z,98519.00
2022-12-31T23:54:23.184Z,98513.25
2022-12-31T23:56:50.034Z,98505.97
2022-12-31T23:59:16.890Z,98510.91
